createdAt,value
2023-02-01T00:02:15.754Z,101072.34
2023-02-01T00:04:42.625Z,101065.19
2023-02-01T00:07:09.228Z,101055.59
2023-02-01T00:09:35.978Z,101056.03
2023-02-01T00:12:03.734Z,101047.47
2023-02-01T00:14:30.483Z,101045.28
2023-02-01T00:16:57.073Z,101046.69
2023-02-01T00:19:23.827Z,101055.47
2023-02-01T00:21:50.455Z,101053.47
2023-02-01T00:24:17.115Z,101067.56
2023-02-01T00:26:46.208Z,101061.00
2023-02-01T00:29:15.938Z,101069.59
2023-02-01T00:31:43.573Z,101063.22
2023-02-01T00:34:16.795Z,101057.47
2023-02-01T00:36:44.648Z,101054.88
2023-02-01T00:39:11.745Z,101044.56
2023-02-01T00:41:38.721Z,101040.06
2023-02-01T00:44:05.398Z,101041.00
2023-02-01T00:46:32.158Z,101038.69
2023-02-01T00:48:59.271Z,101037.47
2023-02-01T00:51:28.937Z,101032.75
2023-02-01T00:53:56.086Z,101033.69
2023-02-01T00:56:23.051Z,101039.16
2023-02-01T00:58:49.906Z,101040.56
2023-02-01T01:01:18.036Z,101051.31
2023-02-01T01:03:47.894Z,101044.53
2023-02-01T01:06:17.056Z,101036.72
2023-02-01T01:08:44.438Z,101041.56
2023-02-01T01:11:14.240Z,101034.38
2023-02-01T01:13:41.815Z,101037.38
2023-02-01T01:16:10.279Z,101026.50
2023-02-01T01:18:37.948Z,101024.06
2023-02-01T01:21:10.499Z,101017.53
2023-02-01T01:23:37.609Z,101029.34
2023-02-01T01:26:09.781Z,101032.31
2023-02-01T01:28:36.573Z,101032.38
2023-02-01T01:31:04.018Z,101037.19
2023-02-01T01:33:31.059Z,101031.88
2023-02-01T01:35:57.777Z,101038.19
2023-02-01T01:38:24.317Z,101038.13
2023-02-01T01:40:50.990Z,101045.34
2023-02-01T01:43:23.159Z,101048.44
2023-02-01T01:45:51.778Z,101043.34
2023-02-01T01:48:25.961Z,101041.81
2023-02-01T01:51:09.579Z,101035.78
2023-02-01T01:53:46.283Z,101036.81
2023-02-01T01:56:13.727Z,101036.50
2023-02-01T01:58:41.296Z,101021.66
2023-02-01T02:01:07.936Z,101008.75
2023-02-01T02:03:41.475Z,101013.81
2023-02-01T02:06:16.397Z,101002.91
2023-02-01T02:08:43.121Z,100993.41
2023-02-01T02:11:12.958Z,100988.53
2023-02-01T02:13:41.576Z,100988.63
2023-02-01T02:16:27.450Z,100990.19
2023-02-01T02:19:06.192Z,100988.66
2023-02-01T02:22:00.809Z,100979.41
2023-02-01T02:24:56.314Z,100971.97
2023-02-01T02:27:47.186Z,100979.59
2023-02-01T02:30:38.271Z,100978.09
2023-02-01T02:33:23.282Z,100971.41
2023-02-01T02:35:55.125Z,100961.94
2023-02-01T02:38:30.873Z,100956.44
2023-02-01T02:41:39.260Z,100947.53
2023-02-01T02:45:08.582Z,100947.16
2023-02-01T02:47:45.593Z,100945.25
2023-02-01T02:50:49.158Z,100939.09
2023-02-01T02:53:38.667Z,100941.66
2023-02-01T02:56:27.042Z,100933.44
2023-02-01T02:59:13.514Z,100929.66
2023-02-01T03:02:00.101Z,100928.75
2023-02-01T03:04:26.739Z,100931.47
2023-02-01T03:06:54.618Z,100924.22
2023-02-01T03:09:35.359Z,100920.22
2023-02-01T03:12:31.116Z,100923.00
2023-02-01T03:15:07.585Z,100922.06
2023-02-01T03:17:42.690Z,100923.25
2023-02-01T03:20:14.386Z,100918.44
2023-02-01T03:22:44.424Z,100910.78
2023-02-01T03:25:26.315Z,100908.25
2023-02-01T03:28:00.789Z,100903.44
2023-02-01T03:30:34.283Z,100910.50
2023-02-01T03:33:05.249Z,100887.84
2023-02-01T03:35:45.641Z,100885.63
2023-02-01T03:38:36.997Z,100886.91
2023-02-01T03:41:05.218Z,100891.13
2023-02-01T03:43:46.336Z,100884.41
2023-02-01T03:46:21.904Z,100879.91
2023-02-01T03:48:51.085Z,100882.56
2023-02-01T03:51:20.643Z,100882.03
2023-02-01T03:53:49.765Z,100879.47
2023-02-01T03:56:19.744Z,100878.94
2023-02-01T03:58:59.878Z,100879.09
2023-02-01T04:01:32.012Z,100871.75
2023-02-01T04:03:59.498Z,100877.53
2023-02-01T04:06:27.126Z,100870.34
2023-02-01T04:08:57.948Z,100870.75
2023-02-01T04:11:24.575Z,100867.47
2023-02-01T04:13:51.100Z,100870.84
2023-02-01T04:16:17.731Z,100863.19
2023-02-01T04:18:44.473Z,100860.75
2023-02-01T04:21:11.062Z,100859.81
2023-02-01T04:23:37.767Z,100859.59
2023-02-01T04:26:05.880Z,100859.38
2023-02-01T04:28:32.698Z,100847.84
2023-02-01T04:30:59.826Z,100849.84
2023-02-01T04:33:26.496Z,100846.03
2023-02-01T04:35:53.099Z,100842.34
2023-02-01T04:38:19.646Z,100848.63
2023-02-01T04:40:48.491Z,100855.81
2023-02-01T04:43:15.256Z,100842.31
2023-02-01T04:45:41.855Z,100848.88
2023-02-01T04:48:08.385Z,100841.88
2023-02-01T04:50:36.248Z,100836.56
2023-02-01T04:53:02.871Z,100839.66
2023-02-01T04:55:29.424Z,100841.75
2023-02-01T04:57:56.328Z,100845.44
2023-02-01T05:00:23.427Z,100835.78
2023-02-01T05:02:50.115Z,100825.84
2023-02-01T05:05:16.835Z,100825.94
2023-02-01T05:07:43.558Z,100834.38
2023-02-01T05:10:11.405Z,100829.22
2023-02-01T05:12:56.611Z,100832.75
2023-02-01T05:15:23.183Z,100845.16
2023-02-01T05:17:49.791Z,100831.81
2023-02-01T05:20:16.675Z,100829.50
2023-02-01T05:22:43.526Z,100827.47
2023-02-01T05:25:10.163Z,100819.78
2023-02-01T05:27:37.073Z,100818.00
2023-02-01T05:30:06.082Z,100812.00
2023-02-01T05:32:32.825Z,100809.72
2023-02-01T05:34:59.586Z,100808.16
2023-02-01T05:37:26.263Z,100809.41
2023-02-01T05:39:52.954Z,100810.16
2023-02-01T05:42:19.705Z,100799.16
2023-02-01T05:44:46.461Z,100794.75
2023-02-01T05:47:13.652Z,100797.66
2023-02-01T05:49:40.243Z,100795.94
2023-02-01T05:52:07.004Z,100782.81
2023-02-01T05:54:33.555Z,100789.84
2023-02-01T05:57:00.204Z,100789.16
2023-02-01T05:59:26.739Z,100794.50
2023-02-01T06:01:53.453Z,100799.09
2023-02-01T06:04:20.009Z,100810.94
2023-02-01T06:06:46.654Z,100805.19
2023-02-01T06:09:13.195Z,100791.97
2023-02-01T06:11:41.330Z,100784.56
2023-02-01T06:14:08.861Z,100796.53
2023-02-01T06:16:35.491Z,100797.97
2023-02-01T06:19:02.063Z,100802.81
2023-02-01T06:21:28.667Z,100796.13
2023-02-01T06:23:55.759Z,100807.69
2023-02-01T06:26:22.547Z,100802.81
2023-02-01T06:28:49.230Z,100796.22
2023-02-01T06:31:17.112Z,100797.72
2023-02-01T06:33:43.901Z,100805.75
2023-02-01T06:36:13.208Z,100804.13
2023-02-01T06:38:40.152Z,100812.91
2023-02-01T06:41:06.813Z,100821.03
2023-02-01T06:43:36.402Z,100814.19
2023-02-01T06:46:04.820Z,100823.16
2023-02-01T06:48:32.002Z,100824.31
2023-02-01T06:50:58.846Z,100827.00
2023-02-01T06:53:25.855Z,100834.97
2023-02-01T06:55:57.122Z,100845.63
2023-02-01T06:58:24.124Z,100833.13
2023-02-01T07:00:51.535Z,100842.22
2023-02-01T07:03:18.193Z,100828.75
2023-02-01T07:05:44.854Z,100836.50
2023-02-01T07:08:11.409Z,100843.13
2023-02-01T07:10:38.465Z,100843.78
2023-02-01T07:13:05.260Z,100835.13
2023-02-01T07:15:31.862Z,100842.84
2023-02-01T07:17:58.515Z,100844.47
2023-02-01T07:20:25.356Z,100847.78
2023-02-01T07:22:58.381Z,100855.75
2023-02-01T07:25:25.515Z,100854.44
2023-02-01T07:27:52.165Z,100859.28
2023-02-01T07:30:18.986Z,100864.16
2023-02-01T07:32:45.632Z,100873.94
2023-02-01T07:35:13.309Z,100871.44
2023-02-01T07:37:39.959Z,100880.06
2023-02-01T07:40:07.390Z,100865.47
2023-02-01T07:42:35.077Z,100875.84
2023-02-01T07:45:19.847Z,100871.69
2023-02-01T07:47:47.841Z,100875.78
2023-02-01T07:50:14.711Z,100896.16
2023-02-01T07:52:41.682Z,100889.91
2023-02-01T07:55:08.759Z,100893.84
2023-02-01T07:57:35.607Z,100885.06
2023-02-01T08:00:21.196Z,100893.19
2023-02-01T08:02:47.905Z,100886.09
2023-02-01T08:05:14.559Z,100887.97
2023-02-01T08:07:41.144Z,100875.78
2023-02-01T08:10:12.621Z,100893.06
2023-02-01T08:12:39.452Z,100895.84
2023-02-01T08:15:06.692Z,100899.44
2023-02-01T08:17:33.297Z,100905.06
2023-02-01T08:19:59.848Z,100893.72
2023-02-01T08:22:26.369Z,100896.78
2023-02-01T08:25:02.125Z,100902.94
2023-02-01T08:27:28.833Z,100905.22
2023-02-01T08:29:55.428Z,100891.44
2023-02-01T08:32:22.039Z,100898.16
2023-02-01T08:34:48.620Z,100896.09
2023-02-01T08:37:15.340Z,100905.28
2023-02-01T08:39:46.210Z,100907.06
2023-02-01T08:42:46.376Z,100908.56
2023-02-01T08:45:13.147Z,100907.47
2023-02-01T08:47:40.093Z,100916.56
2023-02-01T08:50:07.186Z,100904.22
2023-02-01T08:52:33.803Z,100913.91
2023-02-01T08:55:00.421Z,100914.84
2023-02-01T08:57:27.243Z,100917.31
2023-02-01T08:59:55.082Z,100900.88
2023-02-01T09:02:21.666Z,100917.69
2023-02-01T09:04:48.251Z,100906.84
2023-02-01T09:07:14.864Z,100914.34
2023-02-01T09:09:41.591Z,100898.66
2023-02-01T09:12:08.188Z,100899.66
2023-02-01T09:14:34.955Z,100906.22
2023-02-01T09:17:01.796Z,100904.41
2023-02-01T09:19:28.367Z,100902.41
2023-02-01T09:21:55.418Z,100892.44
2023-02-01T09:24:22.076Z,100896.97
2023-02-01T09:26:48.844Z,100886.97
2023-02-01T09:29:15.497Z,100893.38
2023-02-01T09:31:49.699Z,100881.06
2023-02-01T09:34:16.697Z,100886.34
2023-02-01T09:36:43.367Z,100887.50
2023-02-01T09:39:10.052Z,100870.75
2023-02-01T09:41:43.766Z,100879.31
2023-02-01T09:44:44.912Z,100881.59
2023-02-01T09:47:17.971Z,100884.81
2023-02-01T09:50:04.814Z,100878.72
2023-02-01T09:52:43.289Z,100885.22
2023-02-01T09:55:20.029Z,100877.16
2023-02-01T09:58:01.582Z,100887.38
2023-02-01T10:00:36.416Z,100871.44
2023-02-01T10:03:03.937Z,100878.28
2023-02-01T10:06:07.567Z,100868.97
2023-02-01T10:09:10.425Z,100865.06
2023-02-01T10:11:52.663Z,100869.59
2023-02-01T10:14:26.484Z,100859.25
2023-02-01T10:17:04.876Z,100863.59
2023-02-01T10:19:43.561Z,100860.00
2023-02-01T10:22:12.167Z,100862.81
2023-02-01T10:24:43.666Z,100869.34
2023-02-01T10:27:15.094Z,100870.69
2023-02-01T10:29:46.794Z,100867.97
2023-02-01T10:32:21.505Z,100868.25
2023-02-01T10:34:58.220Z,100867.28
2023-02-01T10:37:33.656Z,100865.69
2023-02-01T10:40:23.208Z,100848.41
2023-02-01T10:42:53.600Z,100853.47
2023-02-01T10:45:25.958Z,100851.53
2023-02-01T10:47:54.652Z,100855.09
2023-02-01T10:50:40.144Z,100855.19
2023-02-01T10:53:18.149Z,100852.09
2023-02-01T10:55:44.709Z,100853.72
2023-02-01T10:58:28.342Z,100856.41
2023-02-01T11:00:58.236Z,100853.78
2023-02-01T11:03:30.887Z,100846.13
2023-02-01T11:05:57.808Z,100841.34
2023-02-01T11:08:24.757Z,100830.03
2023-02-01T11:11:06.691Z,100831.84
2023-02-01T11:13:39.030Z,100813.88
2023-02-01T11:16:07.217Z,100824.41
2023-02-01T11:18:38.073Z,100807.25
2023-02-01T11:21:06.895Z,100816.72
2023-02-01T11:23:34.788Z,100810.84
2023-02-01T11:26:08.761Z,100812.00
2023-02-01T11:28:39.456Z,100806.13
2023-02-01T11:31:11.213Z,100810.34
2023-02-01T11:33:41.911Z,100797.69
2023-02-01T11:36:13.952Z,100805.53
2023-02-01T11:39:11.948Z,100791.38
2023-02-01T11:42:14.689Z,100782.19
2023-02-01T11:44:43.800Z,100782.53
2023-02-01T11:47:24.519Z,100777.31
2023-02-01T11:49:53.963Z,100762.63
2023-02-01T11:53:04.329Z,100757.34
2023-02-01T11:55:46.114Z,100769.56
2023-02-01T11:58:21.760Z,100766.66
2023-02-01T12:01:12.828Z,100769.00
2023-02-01T12:04:00.941Z,100760.75
2023-02-01T12:06:46.443Z,100762.38
2023-02-01T12:09:26.427Z,100752.78
2023-02-01T12:12:14.340Z,100755.47
2023-02-01T12:15:02.130Z,100756.31
2023-02-01T12:17:33.949Z,100741.88
2023-02-01T12:20:04.291Z,100737.75
2023-02-01T12:22:49.155Z,100739.22
2023-02-01T12:25:34.026Z,100732.59
2023-02-01T12:28:07.455Z,100708.16
2023-02-01T12:31:07.244Z,100733.97
2023-02-01T12:33:44.286Z,100737.69
2023-02-01T12:36:16.993Z,100731.59
2023-02-01T12:38:56.419Z,100720.84
2023-02-01T12:41:35.612Z,100725.91
2023-02-01T12:44:16.638Z,100723.22
2023-02-01T12:47:00.554Z,100733.72
2023-02-01T12:49:42.865Z,100714.69
2023-02-01T12:52:18.175Z,100721.41
2023-02-01T12:54:57.243Z,100708.31
2023-02-01T12:57:31.492Z,100705.16
2023-02-01T13:00:23.448Z,100711.59
2023-02-01T13:02:57.800Z,100705.03
2023-02-01T13:05:55.941Z,100707.69
2023-02-01T13:08:26.359Z,100702.94
2023-02-01T13:11:04.159Z,100678.69
2023-02-01T13:13:57.167Z,100691.72
2023-02-01T13:16:38.409Z,100695.31
2023-02-01T13:19:18.939Z,100690.34
2023-02-01T13:21:54.516Z,100684.78
2023-02-01T13:24:33.681Z,100678.81
2023-02-01T13:27:01.431Z,100684.97
2023-02-01T13:29:30.842Z,100692.25
2023-02-01T13:32:06.477Z,100700.81
2023-02-01T13:34:48.448Z,100691.28
2023-02-01T13:37:44.031Z,100684.34
2023-02-01T13:40:35.303Z,100698.72
2023-02-01T13:43:09.287Z,100691.31
2023-02-01T13:45:43.731Z,100684.31
2023-02-01T13:48:21.684Z,100687.41
2023-02-01T13:50:53.495Z,100686.34
2023-02-01T13:53:29.714Z,100677.91
2023-02-01T13:56:07.782Z,100660.44
2023-02-01T13:58:37.576Z,100673.59
2023-02-01T14:01:22.659Z,100678.91
2023-02-01T14:03:57.567Z,100689.47
2023-02-01T14:06:27.213Z,100674.44
2023-02-01T14:09:08.904Z,100665.50
2023-02-01T14:11:38.440Z,100674.38
2023-02-01T14:14:17.117Z,100673.88
2023-02-01T14:16:55.909Z,100666.16
2023-02-01T14:19:35.559Z,100656.28
2023-02-01T14:22:22.047Z,100669.88
2023-02-01T14:24:57.895Z,100672.31
2023-02-01T14:27:29.184Z,100665.13
2023-02-01T14:30:02.183Z,100669.09
2023-02-01T14:32:35.103Z,100670.59
2023-02-01T14:35:06.664Z,100693.63
2023-02-01T14:37:39.902Z,100690.59
2023-02-01T14:40:20.889Z,100740.72
2023-02-01T14:42:54.873Z,100780.31
2023-02-01T14:45:25.154Z,100730.78
2023-02-01T14:48:07.273Z,100721.34
2023-02-01T14:50:38.495Z,100724.94
2023-02-01T14:53:14.211Z,100752.84
2023-02-01T14:55:59.874Z,100752.06
2023-02-01T14:59:02.784Z,100748.72
2023-02-01T15:01:33.724Z,100729.09
2023-02-01T15:04:10.884Z,100749.72
2023-02-01T15:06:40.843Z,100747.13
2023-02-01T15:09:21.863Z,100759.06
2023-02-01T15:12:21.378Z,100756.69
2023-02-01T15:15:03.692Z,100755.34
2023-02-01T15:17:38.297Z,100753.69
2023-02-01T15:20:18.925Z,100764.69
2023-02-01T15:23:08.658Z,100769.81
2023-02-01T15:25:39.209Z,100778.94
2023-02-01T15:28:07.005Z,100771.09
2023-02-01T15:30:35.875Z,100772.28
2023-02-01T15:33:16.946Z,100777.44
2023-02-01T15:35:45.299Z,100783.53
2023-02-01T15:38:30.686Z,100778.47
2023-02-01T15:41:16.374Z,100791.16
2023-02-01T15:43:49.092Z,100784.72
2023-02-01T15:46:22.191Z,100781.41
2023-02-01T15:48:55.464Z,100796.16
2023-02-01T15:51:25.010Z,100797.31
2023-02-01T15:54:01.354Z,100802.63
2023-02-01T15:56:31.810Z,100788.88
2023-02-01T15:59:02.085Z,100802.72
2023-02-01T16:01:30.291Z,100796.81
2023-02-01T16:04:15.261Z,100814.75
2023-02-01T16:06:56.556Z,100808.94
2023-02-01T16:09:28.220Z,100806.84
2023-02-01T16:11:58.512Z,100815.34
2023-02-01T16:14:26.828Z,100809.69
2023-02-01T16:16:57.747Z,100814.91
2023-02-01T16:19:28.800Z,100805.16
2023-02-01T16:21:59.863Z,100817.72
2023-02-01T16:24:26.962Z,100817.72
2023-02-01T16:26:53.715Z,100814.78
2023-02-01T16:29:22.411Z,100829.31
2023-02-01T16:31:49.726Z,100840.00
2023-02-01T16:34:20.272Z,100836.88
2023-02-01T16:36:57.875Z,100848.00
2023-02-01T16:39:25.277Z,100853.22
2023-02-01T16:41:51.938Z,100842.97
2023-02-01T16:44:19.315Z,100839.78
2023-02-01T16:46:47.949Z,100845.75
2023-02-01T16:49:25.449Z,100855.59
2023-02-01T16:51:57.001Z,100855.06
2023-02-01T16:54:23.953Z,100844.06
2023-02-01T16:56:50.739Z,100851.63
2023-02-01T16:59:17.318Z,100856.09
2023-02-01T17:01:43.997Z,100847.25
2023-02-01T17:04:12.522Z,100855.00
2023-02-01T17:06:40.066Z,100860.75
2023-02-01T17:09:07.435Z,100854.72
2023-02-01T17:11:34.125Z,100865.38
2023-02-01T17:14:18.974Z,100869.78
2023-02-01T17:16:48.049Z,100871.34
2023-02-01T17:19:20.287Z,100870.69
2023-02-01T17:21:51.677Z,100873.44
2023-02-01T17:24:20.904Z,100871.22
2023-02-01T17:26:47.721Z,100875.06
2023-02-01T17:29:14.347Z,100887.66
2023-02-01T17:31:44.791Z,100885.22
2023-02-01T17:34:15.584Z,100894.50
2023-02-01T17:36:42.786Z,100892.75
2023-02-01T17:39:10.574Z,100886.53
2023-02-01T17:41:37.678Z,100895.97
2023-02-01T17:44:05.206Z,100904.94
2023-02-01T17:46:32.483Z,100890.44
2023-02-01T17:48:59.215Z,100896.28
2023-02-01T17:51:28.151Z,100893.53
2023-02-01T17:53:55.272Z,100889.56
2023-02-01T17:56:23.886Z,100896.16
2023-02-01T17:58:51.115Z,100891.16
2023-02-01T18:01:24.899Z,100896.41
2023-02-01T18:03:52.040Z,100894.63
2023-02-01T18:06:22.717Z,100892.06
2023-02-01T18:08:49.939Z,100896.03
2023-02-01T18:11:21.546Z,100884.19
2023-02-01T18:13:49.498Z,100896.53
2023-02-01T18:16:27.944Z,100894.63
2023-02-01T18:18:57.705Z,100888.31
2023-02-01T18:21:24.576Z,100888.78
2023-02-01T18:23:51.239Z,100889.34
2023-02-01T18:26:19.247Z,100886.69
2023-02-01T18:28:45.967Z,100883.97
2023-02-01T18:31:32.594Z,100893.47
2023-02-01T18:34:00.216Z,100896.03
2023-02-01T18:36:28.022Z,100899.81
2023-02-01T18:38:57.536Z,100897.03
2023-02-01T18:41:25.383Z,100902.69
2023-02-01T18:43:52.795Z,100905.91
2023-02-01T18:46:21.596Z,100899.66
2023-02-01T18:48:48.569Z,100909.97
2023-02-01T18:51:20.269Z,100904.38
2023-02-01T18:53:48.303Z,100908.34
2023-02-01T18:56:18.122Z,100909.16
2023-02-01T18:58:45.024Z,100902.56
2023-02-01T19:01:17.349Z,100896.81
2023-02-01T19:03:49.251Z,100904.75
2023-02-01T19:06:22.923Z,100903.84
2023-02-01T19:08:51.191Z,100903.72
2023-02-01T19:11:18.739Z,100910.84
2023-02-01T19:13:45.361Z,100918.91
2023-02-01T19:16:13.617Z,100916.97
2023-02-01T19:18:40.496Z,100916.91
2023-02-01T19:21:10.483Z,100925.25
2023-02-01T19:23:40.899Z,100933.31
2023-02-01T19:26:16.131Z,100937.41
2023-02-01T19:28:46.857Z,100936.66
2023-02-01T19:31:13.915Z,100939.63
2023-02-01T19:33:40.601Z,100940.59
2023-02-01T19:36:10.878Z,100936.53
2023-02-01T19:38:38.745Z,100938.81
2023-02-01T19:41:05.845Z,100938.28
2023-02-01T19:43:32.743Z,100941.81
2023-02-01T19:45:59.680Z,100926.94
2023-02-01T19:48:26.248Z,100937.53
2023-02-01T19:50:52.938Z,100939.13
2023-02-01T19:53:24.637Z,100943.91
2023-02-01T19:55:51.237Z,100946.63
2023-02-01T19:58:17.848Z,100946.69
2023-02-01T20:00:43.634Z,100942.81
2023-02-01T20:03:10.350Z,100942.00
2023-02-01T20:05:37.184Z,100938.88
2023-02-01T20:08:03.990Z,100938.66
2023-02-01T20:10:30.704Z,100954.56
2023-02-01T20:12:57.224Z,100962.03
2023-02-01T20:15:26.925Z,100960.25
2023-02-01T20:17:53.934Z,100963.38
2023-02-01T20:20:20.553Z,100954.78
2023-02-01T20:22:47.052Z,100957.47
2023-02-01T20:25:13.686Z,100956.72
2023-02-01T20:27:44.061Z,100955.50
2023-02-01T20:30:11.444Z,100949.63
2023-02-01T20:32:38.081Z,100959.38
2023-02-01T20:35:05.071Z,100949.06
2023-02-01T20:37:31.730Z,100950.22
2023-02-01T20:39:58.351Z,100947.84
2023-02-01T20:42:24.956Z,100956.66
2023-02-01T20:44:51.520Z,100954.69
2023-02-01T20:47:18.144Z,100962.22
2023-02-01T20:49:44.872Z,100963.09
2023-02-01T20:52:11.838Z,100964.59
2023-02-01T20:54:38.470Z,100961.47
2023-02-01T20:57:05.109Z,100952.16
2023-02-01T20:59:32.051Z,100960.47
2023-02-01T21:01:59.308Z,100967.28
2023-02-01T21:04:27.498Z,100970.56
2023-02-01T21:06:58.896Z,100960.50
2023-02-01T21:09:28.138Z,100964.56
2023-02-01T21:11:54.989Z,100973.28
2023-02-01T21:14:22.296Z,100969.28
2023-02-01T21:16:49.593Z,100977.66
2023-02-01T21:19:22.337Z,100976.94
2023-02-01T21:21:48.954Z,100970.81
2023-02-01T21:24:15.573Z,100973.81
2023-02-01T21:26:42.382Z,100978.09
2023-02-01T21:29:14.930Z,100973.75
2023-02-01T21:31:42.643Z,100982.91
2023-02-01T21:34:09.852Z,100981.22
2023-02-01T21:36:36.717Z,100987.75
2023-02-01T21:39:07.922Z,100985.50
2023-02-01T21:41:54.785Z,100973.94
2023-02-01T21:44:22.532Z,100981.66
2023-02-01T21:46:49.966Z,100986.69
2023-02-01T21:49:16.679Z,100982.09
2023-02-01T21:51:43.676Z,100984.50
2023-02-01T21:54:11.777Z,100988.34
2023-02-01T21:56:39.279Z,100997.00
2023-02-01T21:59:06.847Z,100995.72
2023-02-01T22:01:33.490Z,100997.72
2023-02-01T22:04:00.132Z,100998.25
2023-02-01T22:06:36.050Z,100997.19
2023-02-01T22:09:04.142Z,101003.31
2023-02-01T22:11:31.037Z,101006.75
2023-02-01T22:13:58.014Z,101003.00
2023-02-01T22:16:25.016Z,101013.53
2023-02-01T22:18:52.559Z,101024.47
2023-02-01T22:21:19.934Z,101018.03
2023-02-01T22:23:54.090Z,101023.09
2023-02-01T22:26:22.450Z,101030.91
2023-02-01T22:28:49.562Z,101039.31
2023-02-01T22:31:17.001Z,101043.06
2023-02-01T22:33:45.806Z,101047.34
2023-02-01T22:36:15.200Z,101048.53
2023-02-01T22:38:41.801Z,101052.84
2023-02-01T22:41:09.089Z,101058.03
2023-02-01T22:43:36.217Z,101051.75
2023-02-01T22:46:25.311Z,101052.78
2023-02-01T22:48:52.444Z,101067.16
2023-02-01T22:51:28.168Z,101062.78
2023-02-01T22:53:58.121Z,101070.25
2023-02-01T22:56:33.312Z,101067.81
2023-02-01T22:59:02.340Z,101069.34
2023-02-01T23:01:29.485Z,101070.44
2023-02-01T23:03:57.672Z,101077.88
2023-02-01T23:06:24.832Z,101075.88
2023-02-01T23:08:55.353Z,101079.50
2023-02-01T23:11:22.130Z,101090.78
2023-02-01T23:13:48.708Z,101077.28
2023-02-01T23:16:15.282Z,101087.09
2023-02-01T23:18:42.087Z,101083.47
2023-02-01T23:21:14.777Z,101084.66
2023-02-01T23:23:46.206Z,101091.66
2023-02-01T23:26:12.985Z,101090.78
2023-02-01T23:28:39.603Z,101091.13
2023-02-01T23:31:08.595Z,101087.91
2023-02-01T23:33:36.413Z,101101.75
2023-02-01T23:36:05.903Z,101106.25
2023-02-01T23:38:32.502Z,101094.97
2023-02-01T23:41:01.475Z,101102.84
2023-02-01T23:44:07.378Z,101101.22
2023-02-01T23:46:36.920Z,101101.66
2023-02-01T23:49:04.306Z,101102.66
2023-02-01T23:51:31.066Z,101099.31
2023-02-01T23:53:58.508Z,101101.28
2023-02-01T23:56:34.220Z,101096.38
2023-02-01T23:59:02.818Z,101098.94
